createdAt,value
2018-04-27T00:00:31.626Z,6.70
2018-04-27T00:01:31.523Z,7.70
2018-04-27T00:02:31.421Z,7.10
2018-04-27T00:03:31.329Z,8.10
2018-04-27T00:04:31.225Z,8.60
2018-04-27T00:05:31.123Z,8.50
2018-04-27T00:06:31.018Z,10.30
2018-04-27T00:07:30.915Z,9.20
2018-04-27T00:08:30.859Z,10.40
2018-04-27T00:09:30.712Z,9.20
2018-04-27T00:10:30.606Z,11.00
2018-04-27T00:11:30.515Z,8.80
2018-04-27T00:12:30.411Z,12.30
2018-04-27T00:13:30.307Z,10.00
2018-04-27T00:14:30.204Z,9.90
2018-04-27T00:15:30.100Z,8.10
2018-04-27T00:16:29.998Z,9.40
2018-04-27T00:17:29.895Z,8.60
2018-04-27T00:18:29.791Z,8.10
2018-04-27T00:19:29.688Z,8.10
2018-04-27T00:20:29.597Z,8.40
2018-04-27T00:21:29.493Z,7.90
2018-04-27T00:22:29.390Z,9.00
2018-04-27T00:23:29.286Z,7.70
2018-04-27T00:24:29.183Z,9.50
2018-04-27T00:25:29.079Z,6.50
2018-04-27T00:26:28.977Z,7.40
2018-04-27T00:27:28.873Z,6.80
2018-04-27T00:28:28.771Z,7.70
2018-04-27T00:29:28.682Z,6.40
2018-04-27T00:30:28.575Z,7.60
2018-04-27T00:31:28.471Z,8.00
2018-04-27T00:32:28.368Z,6.00
2018-04-27T00:33:28.265Z,8.70
2018-04-27T00:34:28.190Z,7.90
2018-04-27T00:35:28.059Z,9.40
2018-04-27T00:36:27.956Z,7.60
2018-04-27T00:37:27.853Z,7.90
2018-04-27T00:38:27.766Z,9.00
2018-04-27T00:39:27.662Z,8.70
2018-04-27T00:40:27.855Z,8.80
2018-04-27T00:41:27.453Z,8.30
2018-04-27T00:42:27.349Z,9.20
2018-04-27T00:43:27.245Z,8.60
2018-04-27T00:44:27.146Z,10.10
2018-04-27T00:45:27.039Z,13.00
2018-04-27T00:46:26.948Z,9.40
2018-04-27T00:47:26.844Z,10.60
2018-04-27T00:48:26.741Z,12.10
2018-04-27T00:49:26.638Z,12.10
2018-04-27T00:50:26.534Z,11.90
2018-04-27T00:51:26.432Z,13.00
2018-04-27T00:52:26.329Z,12.80
2018-04-27T00:53:26.224Z,15.90
2018-04-27T00:54:26.122Z,14.50
2018-04-27T00:55:26.030Z,13.50
2018-04-27T00:56:25.927Z,12.30
2018-04-27T00:57:25.825Z,13.00
2018-04-27T00:58:25.721Z,14.80
2018-04-27T00:59:25.623Z,12.20
2018-04-27T01:00:25.815Z,14.00
2018-04-27T01:01:25.411Z,10.80
2018-04-27T01:02:25.312Z,12.80
2018-04-27T01:03:25.207Z,14.60
2018-04-27T01:04:25.102Z,15.40
2018-04-27T01:05:24.998Z,13.10
2018-04-27T01:06:24.908Z,16.30
2018-04-27T01:07:24.817Z,16.80
2018-04-27T01:08:24.701Z,16.20
2018-04-27T01:09:24.597Z,17.30
2018-04-27T01:10:24.494Z,15.40
2018-04-27T01:11:24.390Z,13.80
2018-04-27T01:12:24.288Z,13.40
2018-04-27T01:13:24.184Z,16.20
2018-04-27T01:14:24.081Z,15.40
2018-04-27T01:15:23.978Z,14.00
2018-04-27T01:16:23.874Z,15.80
2018-04-27T01:17:23.771Z,14.90
2018-04-27T01:18:23.669Z,16.80
2018-04-27T01:19:23.567Z,19.80
2018-04-27T01:20:23.475Z,17.30
2018-04-27T01:21:23.371Z,17.70
2018-04-27T01:22:23.267Z,14.60
2018-04-27T01:23:23.165Z,19.40
2018-04-27T01:24:23.061Z,15.00
2018-04-27T01:25:22.959Z,13.00
2018-04-27T01:26:22.855Z,15.70
2018-04-27T01:27:22.752Z,16.00
2018-04-27T01:28:22.648Z,17.50
2018-04-27T01:29:22.543Z,14.90
2018-04-27T01:30:22.440Z,13.90
2018-04-27T01:31:22.337Z,15.70
2018-04-27T01:32:22.234Z,17.70
2018-04-27T01:33:22.134Z,19.50
2018-04-27T01:34:22.038Z,17.10
2018-04-27T01:35:21.935Z,16.30
2018-04-27T01:36:21.832Z,20.90
2018-04-27T01:37:21.730Z,23.40
2018-04-27T01:38:21.625Z,22.90
2018-04-27T01:39:21.522Z,23.10
2018-04-27T01:40:21.418Z,25.20
2018-04-27T01:41:21.315Z,25.20
2018-04-27T01:42:21.213Z,22.80
2018-04-27T01:43:21.110Z,23.70
2018-04-27T01:44:21.006Z,25.60
2018-04-27T01:45:20.903Z,26.00
2018-04-27T01:46:20.799Z,29.20
2018-04-27T01:47:20.694Z,28.50
2018-04-27T01:48:20.592Z,28.90
2018-04-27T01:49:20.490Z,29.00
2018-04-27T01:50:20.386Z,29.60
2018-04-27T01:51:20.294Z,27.00
2018-04-27T01:52:20.180Z,29.90
2018-04-27T01:53:20.076Z,30.10
2018-04-27T01:54:19.984Z,29.40
2018-04-27T01:55:19.883Z,34.50
2018-04-27T01:56:19.778Z,31.30
2018-04-27T01:57:19.675Z,32.60
2018-04-27T01:58:19.572Z,36.30
2018-04-27T01:59:19.468Z,32.60
2018-04-27T02:00:19.365Z,32.20
2018-04-27T02:01:19.261Z,32.90
2018-04-27T02:02:19.158Z,35.40
2018-04-27T02:03:19.053Z,33.30
2018-04-27T02:04:18.951Z,33.50
2018-04-27T02:05:18.847Z,29.80
2018-04-27T02:06:18.745Z,35.40
2018-04-27T02:07:18.641Z,32.60
2018-04-27T02:08:18.538Z,32.70
2018-04-27T02:09:18.436Z,34.50
2018-04-27T02:10:18.331Z,33.70
2018-04-27T02:11:18.231Z,32.90
2018-04-27T02:12:18.120Z,36.60
2018-04-27T02:13:18.022Z,36.70
2018-04-27T02:14:17.918Z,35.00
2018-04-27T02:15:17.815Z,36.30
2018-04-27T02:16:17.713Z,36.20
2018-04-27T02:17:17.609Z,33.90
2018-04-27T02:18:17.513Z,33.80
2018-04-27T02:19:17.401Z,37.40
2018-04-27T02:20:17.298Z,38.40
2018-04-27T02:21:17.196Z,36.00
2018-04-27T02:22:17.093Z,37.70
2018-04-27T02:23:16.988Z,42.10
2018-04-27T02:24:16.890Z,39.90
2018-04-27T02:25:16.782Z,42.30
2018-04-27T02:26:16.681Z,38.40
2018-04-27T02:27:16.575Z,36.60
2018-04-27T02:28:16.472Z,35.40
2018-04-27T02:29:16.369Z,39.90
2018-04-27T02:30:16.270Z,39.50
2018-04-27T02:31:16.162Z,38.20
2018-04-27T02:32:16.058Z,35.60
2018-04-27T02:33:15.998Z,40.30
2018-04-27T02:34:15.854Z,36.70
2018-04-27T02:35:15.757Z,40.20
2018-04-27T02:36:15.649Z,42.80
2018-04-27T02:37:15.543Z,39.40
2018-04-27T02:38:15.438Z,40.30
2018-04-27T02:39:15.334Z,40.30
2018-04-27T02:40:15.231Z,38.10
2018-04-27T02:41:15.128Z,38.00
2018-04-27T02:42:15.025Z,35.90
2018-04-27T02:43:14.929Z,37.80
2018-04-27T02:44:14.817Z,38.90
2018-04-27T02:45:14.715Z,35.00
2018-04-27T02:46:14.613Z,36.10
2018-04-27T02:47:14.506Z,36.80
2018-04-27T02:48:14.405Z,38.40
2018-04-27T02:49:14.306Z,38.50
2018-04-27T02:50:14.199Z,38.80
2018-04-27T02:51:14.099Z,35.80
2018-04-27T02:52:13.993Z,33.90
2018-04-27T02:53:13.890Z,33.10
2018-04-27T02:54:13.785Z,36.90
2018-04-27T02:55:13.689Z,36.60
2018-04-27T02:56:13.579Z,33.10
2018-04-27T02:57:13.476Z,33.20
2018-04-27T02:58:13.372Z,38.60
2018-04-27T02:59:13.268Z,39.40
2018-04-27T03:00:13.169Z,35.80
2018-04-27T03:01:13.062Z,34.90
2018-04-27T03:02:12.960Z,34.70
2018-04-27T03:03:12.856Z,35.60
2018-04-27T03:04:12.741Z,34.50
2018-04-27T03:05:12.886Z,37.80
2018-04-27T03:06:12.533Z,35.40
2018-04-27T03:07:12.431Z,35.50
2018-04-27T03:08:12.326Z,33.20
2018-04-27T03:09:12.222Z,36.40
2018-04-27T03:10:12.123Z,37.60
2018-04-27T03:11:12.067Z,33.90
2018-04-27T03:12:11.916Z,33.50
2018-04-27T03:13:11.809Z,35.10
2018-04-27T03:14:11.706Z,34.60
2018-04-27T03:15:11.602Z,34.50
2018-04-27T03:16:11.498Z,32.40
2018-04-27T03:17:11.396Z,33.60
2018-04-27T03:18:11.293Z,35.40
2018-04-27T03:19:11.189Z,35.60
2018-04-27T03:20:11.086Z,35.00
2018-04-27T03:21:10.983Z,34.50
2018-04-27T03:22:10.879Z,32.30
2018-04-27T03:23:10.776Z,31.20
2018-04-27T03:24:10.675Z,32.30
2018-04-27T03:25:10.819Z,32.70
2018-04-27T03:26:10.465Z,35.10
2018-04-27T03:27:10.352Z,32.30
2018-04-27T03:28:10.254Z,34.80
2018-04-27T03:29:10.145Z,36.80
2018-04-27T03:30:10.042Z,32.50
2018-04-27T03:31:09.939Z,34.40
2018-04-27T03:32:09.835Z,37.20
2018-04-27T03:33:09.732Z,33.60
2018-04-27T03:34:09.629Z,35.40
2018-04-27T03:35:09.525Z,34.50
2018-04-27T03:36:09.421Z,38.10
2018-04-27T03:37:09.319Z,37.70
2018-04-27T03:38:09.215Z,34.20
2018-04-27T03:39:09.112Z,40.10
2018-04-27T03:40:09.008Z,38.00
2018-04-27T03:41:08.909Z,36.80
2018-04-27T03:42:08.801Z,35.20
2018-04-27T03:43:08.697Z,40.90
2018-04-27T03:44:08.594Z,35.70
2018-04-27T03:45:08.479Z,37.40
2018-04-27T03:46:08.375Z,35.90
2018-04-27T03:47:08.271Z,38.30
2018-04-27T03:48:08.168Z,38.70
2018-04-27T03:49:08.064Z,36.10
2018-04-27T03:50:07.962Z,41.30
2018-04-27T03:51:07.861Z,40.00
2018-04-27T03:52:07.755Z,34.60
2018-04-27T03:53:07.651Z,33.30
2018-04-27T03:54:07.547Z,38.40
2018-04-27T03:55:07.444Z,39.80
2018-04-27T03:56:07.341Z,39.60
2018-04-27T03:57:07.238Z,41.60
2018-04-27T03:58:07.135Z,35.40
2018-04-27T03:59:07.031Z,38.10
2018-04-27T04:00:06.935Z,40.50
2018-04-27T04:01:06.998Z,36.40
2018-04-27T04:02:06.710Z,38.70
2018-04-27T04:03:06.606Z,41.70
2018-04-27T04:04:06.503Z,37.20
2018-04-27T04:05:06.400Z,37.20
2018-04-27T04:06:06.296Z,41.20
2018-04-27T04:07:06.195Z,37.20
2018-04-27T04:08:06.090Z,36.60
2018-04-27T04:09:05.989Z,39.50
2018-04-27T04:10:05.882Z,37.30
2018-04-27T04:11:05.780Z,38.60
2018-04-27T04:12:05.676Z,40.60
2018-04-27T04:13:05.573Z,40.80
2018-04-27T04:14:05.470Z,40.70
2018-04-27T04:15:05.366Z,46.60
2018-04-27T04:16:05.263Z,45.30
2018-04-27T04:17:05.160Z,45.80
2018-04-27T04:18:05.056Z,42.20
2018-04-27T04:19:04.953Z,49.20
2018-04-27T04:20:04.854Z,47.70
2018-04-27T04:21:04.746Z,50.30
2018-04-27T04:22:04.643Z,44.30
2018-04-27T04:23:04.539Z,41.70
2018-04-27T04:24:04.436Z,38.10
2018-04-27T04:25:04.333Z,35.90
2018-04-27T04:26:04.230Z,32.80
2018-04-27T04:27:04.127Z,34.40
2018-04-27T04:28:04.024Z,26.00
2018-04-27T04:29:03.919Z,21.70
2018-04-27T04:30:03.816Z,19.10
2018-04-27T04:31:03.713Z,15.00
2018-04-27T04:32:03.610Z,16.30
2018-04-27T04:33:03.506Z,12.50
2018-04-27T04:34:03.404Z,13.50
2018-04-27T04:35:03.300Z,12.60
2018-04-27T04:36:03.199Z,11.50
2018-04-27T04:37:03.105Z,10.70
2018-04-27T04:38:03.001Z,14.30
2018-04-27T04:39:02.897Z,12.20
2018-04-27T04:40:03.045Z,11.10
2018-04-27T04:41:02.691Z,10.40
2018-04-27T04:42:02.589Z,14.70
2018-04-27T04:43:02.485Z,13.60
2018-04-27T04:44:02.383Z,11.70
2018-04-27T04:45:02.333Z,11.30
2018-04-27T04:46:02.192Z,13.40
2018-04-27T04:47:02.085Z,11.00
2018-04-27T04:48:01.982Z,12.00
2018-04-27T04:49:01.879Z,10.50
2018-04-27T04:50:01.776Z,12.60
2018-04-27T04:51:01.684Z,12.40
2018-04-27T04:52:01.581Z,10.80
2018-04-27T04:53:01.477Z,11.30
2018-04-27T04:54:01.373Z,11.70
2018-04-27T04:55:01.270Z,12.90
2018-04-27T04:56:01.167Z,12.80
2018-04-27T04:57:01.065Z,12.70
2018-04-27T04:58:00.974Z,10.70
2018-04-27T04:59:00.870Z,10.60
2018-04-27T05:00:00.767Z,10.50
2018-04-27T05:01:00.663Z,12.80
2018-04-27T05:02:00.561Z,10.40
2018-04-27T05:03:00.506Z,12.70
2018-04-27T05:04:00.366Z,12.90
2018-04-27T05:05:00.262Z,13.70
2018-04-27T05:06:00.161Z,14.60
2018-04-27T05:07:00.056Z,13.60
2018-04-27T05:07:59.953Z,13.50
2018-04-27T05:08:59.849Z,17.00
2018-04-27T05:09:59.758Z,12.10
2018-04-27T05:10:59.655Z,12.10
2018-04-27T05:11:59.552Z,13.80
2018-04-27T05:12:59.451Z,11.60
2018-04-27T05:13:59.345Z,11.20
2018-04-27T05:14:59.242Z,11.80
2018-04-27T05:15:59.151Z,12.00
2018-04-27T05:16:59.047Z,11.40
2018-04-27T05:17:58.944Z,11.60
2018-04-27T05:18:58.840Z,13.10
2018-04-27T05:19:58.737Z,13.40
2018-04-27T05:20:58.634Z,11.90
2018-04-27T05:21:58.533Z,11.00
2018-04-27T05:22:58.441Z,12.70
2018-04-27T05:23:58.338Z,11.50
2018-04-27T05:24:58.234Z,11.10
2018-04-27T05:25:58.136Z,13.10
2018-04-27T05:26:58.030Z,11.80
2018-04-27T05:27:57.936Z,11.70
2018-04-27T05:28:57.833Z,12.40
2018-04-27T05:29:57.733Z,11.40
2018-04-27T05:30:57.628Z,11.70
2018-04-27T05:31:57.535Z,15.60
2018-04-27T05:32:57.433Z,12.00
2018-04-27T05:33:57.328Z,14.50
2018-04-27T05:34:57.226Z,13.30
2018-04-27T05:35:57.128Z,12.40
2018-04-27T05:36:57.027Z,10.60
2018-04-27T05:37:56.930Z,11.90
2018-04-27T05:38:56.823Z,11.70
2018-04-27T05:39:56.970Z,10.90
2018-04-27T05:40:56.617Z,10.40
2018-04-27T05:41:56.527Z,9.80
2018-04-27T05:42:56.424Z,11.60
2018-04-27T05:43:56.321Z,12.90
2018-04-27T05:44:56.229Z,9.20
2018-04-27T05:45:56.126Z,9.90
2018-04-27T05:46:56.026Z,10.20
2018-04-27T05:47:55.932Z,9.70
2018-04-27T05:48:55.851Z,9.70
2018-04-27T05:49:55.724Z,12.60
2018-04-27T05:50:55.634Z,11.40
2018-04-27T05:51:55.531Z,9.60
2018-04-27T05:52:55.428Z,9.80
2018-04-27T05:53:55.337Z,10.20
2018-04-27T05:54:55.233Z,8.90
2018-04-27T05:55:55.142Z,10.80
2018-04-27T05:56:55.039Z,11.10
2018-04-27T05:57:54.939Z,10.50
2018-04-27T05:58:54.846Z,10.60
2018-04-27T05:59:55.027Z,9.80
2018-04-27T06:00:54.651Z,11.90
2018-04-27T06:01:54.547Z,10.20
2018-04-27T06:02:54.458Z,12.40
2018-04-27T06:03:54.355Z,10.80
2018-04-27T06:04:54.263Z,10.50
2018-04-27T06:05:54.159Z,10.80
2018-04-27T06:06:54.070Z,10.50
2018-04-27T06:07:53.966Z,9.80
2018-04-27T06:08:53.875Z,10.90
2018-04-27T06:09:53.771Z,10.20
2018-04-27T06:10:53.682Z,9.50
2018-04-27T06:11:53.579Z,8.90
2018-04-27T06:12:53.486Z,10.00
2018-04-27T06:13:53.383Z,9.10
2018-04-27T06:14:53.292Z,10.30
2018-04-27T06:15:53.201Z,10.00
2018-04-27T06:16:53.097Z,12.30
2018-04-27T06:17:53.011Z,12.40
2018-04-27T06:18:52.904Z,10.80
2018-04-27T06:19:53.063Z,9.60
2018-04-27T06:20:52.722Z,10.90
2018-04-27T06:21:52.621Z,10.00
2018-04-27T06:22:52.532Z,10.10
2018-04-27T06:23:52.437Z,10.10
2018-04-27T06:24:52.334Z,9.80
2018-04-27T06:25:52.243Z,10.60
2018-04-27T06:26:52.157Z,9.70
2018-04-27T06:27:52.054Z,10.70
2018-04-27T06:28:51.963Z,16.50
2018-04-27T06:29:51.868Z,12.00
2018-04-27T06:30:51.781Z,11.50
2018-04-27T06:31:51.693Z,11.40
2018-04-27T06:32:51.583Z,11.20
2018-04-27T06:33:51.491Z,13.60
2018-04-27T06:34:51.390Z,11.30
2018-04-27T06:35:51.297Z,10.20
2018-04-27T06:36:51.206Z,10.30
2018-04-27T06:37:51.116Z,12.30
2018-04-27T06:38:51.021Z,12.10
2018-04-27T06:39:51.171Z,11.40
2018-04-27T06:40:50.832Z,12.80
2018-04-27T06:41:50.776Z,11.90
2018-04-27T06:42:50.649Z,11.00
2018-04-27T06:43:50.547Z,11.00
2018-04-27T06:44:50.454Z,10.60
2018-04-27T06:45:50.364Z,10.70
2018-04-27T06:46:50.273Z,10.20
2018-04-27T06:47:50.183Z,12.30
2018-04-27T06:48:50.080Z,11.10
2018-04-27T06:49:49.988Z,11.40
2018-04-27T06:50:49.897Z,10.80
2018-04-27T06:51:49.806Z,11.20
2018-04-27T06:52:49.716Z,10.70
2018-04-27T06:53:49.624Z,13.50
2018-04-27T06:54:49.536Z,13.60
2018-04-27T06:55:49.434Z,12.00
2018-04-27T06:56:49.341Z,12.60
2018-04-27T06:57:49.250Z,11.80
2018-04-27T06:58:49.158Z,12.20
2018-04-27T06:59:49.068Z,12.70
2018-04-27T07:00:48.976Z,12.90
2018-04-27T07:01:48.887Z,11.90
2018-04-27T07:02:48.798Z,12.30
2018-04-27T07:03:48.704Z,12.10
2018-04-27T07:04:48.613Z,12.40
2018-04-27T07:05:48.523Z,13.60
2018-04-27T07:06:48.432Z,12.80
2018-04-27T07:07:48.348Z,12.50
2018-04-27T07:08:48.250Z,12.60
2018-04-27T07:09:48.162Z,13.10
2018-04-27T07:10:48.068Z,11.50
2018-04-27T07:11:47.984Z,11.70
2018-04-27T07:12:47.887Z,14.60
2018-04-27T07:13:47.798Z,13.60
2018-04-27T07:14:47.706Z,12.70
2018-04-27T07:15:47.615Z,12.80
2018-04-27T07:16:47.557Z,12.10
2018-04-27T07:17:47.434Z,13.60
2018-04-27T07:18:47.343Z,15.10
2018-04-27T07:19:47.264Z,12.30
2018-04-27T07:20:47.175Z,12.90
2018-04-27T07:21:47.082Z,12.20
2018-04-27T07:22:46.993Z,13.20
2018-04-27T07:23:46.901Z,13.20
2018-04-27T07:24:46.816Z,12.10
2018-04-27T07:25:46.721Z,15.40
2018-04-27T07:26:46.630Z,12.00
2018-04-27T07:27:46.538Z,13.40
2018-04-27T07:28:46.456Z,12.50
2018-04-27T07:29:46.357Z,15.30
2018-04-27T07:30:46.278Z,13.10
2018-04-27T07:31:46.187Z,13.80
2018-04-27T07:32:46.096Z,13.80
2018-04-27T07:33:46.006Z,12.30
2018-04-27T07:34:45.918Z,13.50
2018-04-27T07:35:45.825Z,13.80
2018-04-27T07:36:45.733Z,12.10
2018-04-27T07:37:45.646Z,13.50
2018-04-27T07:38:45.551Z,13.20
2018-04-27T07:39:45.545Z,13.40
2018-04-27T07:40:45.359Z,14.60
2018-04-27T07:41:45.267Z,19.10
2018-04-27T07:42:45.178Z,13.20
2018-04-27T07:43:45.085Z,13.70
2018-04-27T07:44:44.993Z,15.70
2018-04-27T07:45:44.903Z,13.60
2018-04-27T07:46:44.820Z,13.70
2018-04-27T07:47:44.721Z,12.20
2018-04-27T07:48:44.631Z,14.00
2018-04-27T07:49:44.527Z,13.90
2018-04-27T07:50:44.439Z,14.20
2018-04-27T07:51:44.347Z,13.90
2018-04-27T07:52:44.255Z,11.40
2018-04-27T07:53:44.164Z,14.90
2018-04-27T07:54:44.061Z,12.90
2018-04-27T07:55:43.969Z,13.80
2018-04-27T07:56:43.879Z,14.60
2018-04-27T07:57:43.788Z,14.10
2018-04-27T07:58:43.686Z,13.40
2018-04-27T07:59:43.597Z,12.50
2018-04-27T08:00:43.503Z,14.80
2018-04-27T08:01:43.412Z,14.70
2018-04-27T08:02:43.321Z,12.60
2018-04-27T08:03:43.218Z,15.30
2018-04-27T08:04:43.129Z,13.20
2018-04-27T08:05:43.036Z,13.40
2018-04-27T08:06:42.933Z,12.70
2018-04-27T08:07:42.843Z,11.70
2018-04-27T08:08:42.752Z,9.30
2018-04-27T08:09:42.650Z,12.50
2018-04-27T08:10:42.560Z,12.60
2018-04-27T08:11:42.466Z,14.30
2018-04-27T08:12:42.377Z,13.80
2018-04-27T08:13:42.273Z,13.90
2018-04-27T08:14:42.182Z,14.50
2018-04-27T08:15:42.091Z,14.30
2018-04-27T08:16:41.989Z,11.20
2018-04-27T08:17:41.896Z,13.10
2018-04-27T08:18:41.845Z,10.90
2018-04-27T08:19:41.703Z,11.70
2018-04-27T08:20:41.612Z,13.10
2018-04-27T08:21:41.521Z,14.10
2018-04-27T08:22:41.418Z,16.60
2018-04-27T08:23:41.326Z,11.90
2018-04-27T08:24:41.238Z,12.20
2018-04-27T08:25:41.133Z,13.30
2018-04-27T08:26:41.041Z,14.20
2018-04-27T08:27:40.951Z,10.30
2018-04-27T08:28:40.848Z,10.90
2018-04-27T08:29:40.756Z,12.00
2018-04-27T08:30:40.655Z,10.10
2018-04-27T08:31:40.563Z,13.90
2018-04-27T08:32:40.471Z,10.40
2018-04-27T08:33:40.368Z,9.90
2018-04-27T08:34:40.277Z,13.80
2018-04-27T08:35:40.186Z,11.50
2018-04-27T08:36:40.083Z,14.30
2018-04-27T08:37:40.006Z,11.30
2018-04-27T08:38:39.889Z,12.20
2018-04-27T08:39:39.798Z,13.90
2018-04-27T08:40:39.708Z,13.60
2018-04-27T08:41:39.605Z,13.20
2018-04-27T08:42:39.513Z,13.10
2018-04-27T08:43:39.410Z,13.10
2018-04-27T08:44:39.320Z,12.10
2018-04-27T08:45:39.228Z,12.70
2018-04-27T08:46:39.125Z,15.90
2018-04-27T08:47:39.034Z,14.20
2018-04-27T08:48:38.931Z,14.70
2018-04-27T08:49:38.840Z,15.70
2018-04-27T08:50:38.739Z,13.30
2018-04-27T08:51:38.648Z,14.10
2018-04-27T08:52:38.555Z,12.30
2018-04-27T08:53:38.454Z,14.60
2018-04-27T08:54:38.362Z,12.50
2018-04-27T08:55:38.259Z,14.70
2018-04-27T08:56:38.167Z,13.40
2018-04-27T08:57:38.066Z,13.40
2018-04-27T08:58:37.974Z,11.20
2018-04-27T08:59:37.884Z,12.60
2018-04-27T09:00:37.781Z,15.30
2018-04-27T09:01:37.689Z,10.70
2018-04-27T09:02:37.588Z,10.50
2018-04-27T09:03:37.495Z,14.00
2018-04-27T09:04:37.392Z,12.20
2018-04-27T09:05:37.302Z,11.20
2018-04-27T09:06:37.211Z,13.20
2018-04-27T09:07:37.107Z,13.20
2018-04-27T09:08:37.017Z,8.90
2018-04-27T09:09:36.926Z,11.20
2018-04-27T09:10:36.824Z,12.30
2018-04-27T09:11:36.734Z,11.90
2018-04-27T09:12:36.641Z,12.20
2018-04-27T09:13:36.551Z,13.80
2018-04-27T09:14:36.461Z,11.80
2018-04-27T09:15:36.370Z,11.40
2018-04-27T09:16:36.291Z,15.80
2018-04-27T09:17:36.188Z,12.70
2018-04-27T09:18:36.096Z,13.50
2018-04-27T09:19:35.995Z,8.90
2018-04-27T09:20:35.905Z,9.50
2018-04-27T09:21:35.834Z,9.60
2018-04-27T09:22:35.733Z,10.80
2018-04-27T09:23:35.644Z,9.90
2018-04-27T09:24:35.552Z,11.90
2018-04-27T09:25:35.475Z,11.00
2018-04-27T09:26:35.370Z,10.30
2018-04-27T09:27:35.280Z,11.30
2018-04-27T09:28:35.189Z,9.70
2018-04-27T09:29:35.103Z,9.30
2018-04-27T09:30:35.009Z,8.90
2018-04-27T09:31:34.930Z,9.00
2018-04-27T09:32:34.838Z,8.10
2018-04-27T09:33:34.747Z,9.30
2018-04-27T09:34:34.657Z,11.70
2018-04-27T09:35:34.580Z,11.30
2018-04-27T09:36:34.487Z,10.30
2018-04-27T09:37:34.397Z,9.10
2018-04-27T09:38:34.307Z,10.70
2018-04-27T09:39:34.227Z,10.00
2018-04-27T09:40:34.137Z,10.50
2018-04-27T09:41:34.052Z,12.00
2018-04-27T09:42:33.983Z,11.20
2018-04-27T09:43:33.877Z,11.70
2018-04-27T09:44:33.798Z,7.30
2018-04-27T09:45:33.709Z,10.60
2018-04-27T09:46:33.631Z,7.90
2018-04-27T09:47:33.539Z,8.00
2018-04-27T09:48:33.460Z,8.20
2018-04-27T09:49:33.369Z,7.90
2018-04-27T09:50:33.290Z,8.80
2018-04-27T09:51:33.202Z,10.70
2018-04-27T09:52:33.123Z,9.00
2018-04-27T09:53:33.031Z,10.20
2018-04-27T09:54:32.952Z,10.20
2018-04-27T09:55:32.874Z,9.50
2018-04-27T09:56:32.783Z,9.30
2018-04-27T09:57:32.756Z,9.10
2018-04-27T09:58:32.613Z,9.90
2018-04-27T09:59:32.535Z,9.60
2018-04-27T10:00:32.458Z,8.30
2018-04-27T10:01:32.368Z,11.80
2018-04-27T10:02:32.288Z,9.60
2018-04-27T10:03:32.198Z,8.60
2018-04-27T10:04:32.130Z,9.50
2018-04-27T10:05:32.039Z,9.30
2018-04-27T10:06:31.961Z,8.90
2018-04-27T10:07:31.870Z,9.50
2018-04-27T10:08:31.793Z,10.70
2018-04-27T10:09:31.714Z,10.40
2018-04-27T10:10:31.623Z,12.40
2018-04-27T10:11:31.545Z,13.40
2018-04-27T10:12:31.466Z,9.00
2018-04-27T10:13:31.388Z,9.20
2018-04-27T10:14:31.298Z,10.70
2018-04-27T10:15:31.220Z,9.90
2018-04-27T10:16:31.143Z,9.50
2018-04-27T10:17:31.063Z,9.80
2018-04-27T10:18:30.972Z,8.40
2018-04-27T10:19:30.893Z,11.90
2018-04-27T10:20:30.843Z,12.10
2018-04-27T10:21:30.737Z,12.40
2018-04-27T10:22:30.660Z,8.80
2018-04-27T10:23:30.580Z,9.00
2018-04-27T10:24:30.490Z,9.60
2018-04-27T10:25:30.412Z,6.90
2018-04-27T10:26:30.333Z,8.10
2018-04-27T10:27:30.256Z,10.60
2018-04-27T10:28:30.178Z,8.20
2018-04-27T10:29:30.100Z,10.40
2018-04-27T10:30:30.024Z,8.70
2018-04-27T10:31:29.930Z,8.90
2018-04-27T10:32:29.851Z,9.20
2018-04-27T10:33:29.772Z,17.30
2018-04-27T10:34:29.694Z,9.80
2018-04-27T10:35:29.615Z,8.90
2018-04-27T10:36:29.622Z,7.30
2018-04-27T10:37:29.459Z,7.80
2018-04-27T10:38:29.379Z,6.90
2018-04-27T10:39:29.301Z,7.20
2018-04-27T10:40:29.223Z,8.30
2018-04-27T10:41:29.146Z,6.90
2018-04-27T10:42:29.065Z,7.90
2018-04-27T10:43:28.988Z,8.70
2018-04-27T10:44:28.912Z,7.10
2018-04-27T10:45:28.831Z,8.40
2018-04-27T10:46:28.752Z,6.60
2018-04-27T10:47:28.674Z,6.90
2018-04-27T10:48:28.596Z,11.80
2018-04-27T10:49:28.520Z,9.20
2018-04-27T10:50:28.440Z,5.40
2018-04-27T10:51:28.365Z,8.50
2018-04-27T10:52:28.274Z,6.70
2018-04-27T10:53:28.194Z,7.90
2018-04-27T10:54:28.115Z,7.70
2018-04-27T10:55:28.048Z,8.60
2018-04-27T10:56:27.958Z,8.30
2018-04-27T10:57:27.891Z,8.60
2018-04-27T10:58:27.816Z,8.60
2018-04-27T10:59:27.747Z,6.40
2018-04-27T11:00:27.657Z,7.60
2018-04-27T11:01:27.626Z,6.70
2018-04-27T11:02:27.500Z,5.40
2018-04-27T11:03:27.445Z,7.70
2018-04-27T11:04:27.343Z,7.80
2018-04-27T11:05:27.265Z,7.70
2018-04-27T11:06:27.187Z,7.20
2018-04-27T11:07:27.097Z,7.20
2018-04-27T11:08:27.019Z,7.60
2018-04-27T11:09:26.940Z,6.70
2018-04-27T11:10:26.862Z,8.30
2018-04-27T11:11:26.784Z,8.10
2018-04-27T11:12:26.705Z,6.80
2018-04-27T11:13:26.627Z,8.00
2018-04-27T11:14:26.536Z,12.30
2018-04-27T11:15:26.458Z,13.30
2018-04-27T11:16:26.381Z,8.70
2018-04-27T11:17:26.215Z,10.10
2018-04-27T11:18:26.136Z,7.00
2018-04-27T11:19:26.050Z,8.20
2018-04-27T11:20:26.055Z,8.70
2018-04-27T11:21:25.971Z,9.10
2018-04-27T11:22:25.886Z,8.80
2018-04-27T11:23:25.808Z,9.70
2018-04-27T11:24:25.718Z,8.60
2018-04-27T11:25:25.638Z,7.30
2018-04-27T11:26:25.548Z,7.60
2018-04-27T11:27:25.381Z,7.30
2018-04-27T11:28:25.304Z,9.10
2018-04-27T11:29:25.214Z,6.10
2018-04-27T11:30:25.135Z,7.30
2018-04-27T11:31:25.136Z,6.70
2018-04-27T11:32:25.053Z,8.20
2018-04-27T11:33:24.962Z,6.50
2018-04-27T11:34:24.884Z,7.00
2018-04-27T11:35:24.793Z,9.40
2018-04-27T11:36:24.704Z,6.80
2018-04-27T11:37:24.625Z,5.90
2018-04-27T11:38:24.533Z,8.10
2018-04-27T11:39:24.455Z,8.90
2018-04-27T11:40:24.365Z,6.80
2018-04-27T11:41:24.272Z,6.70
2018-04-27T11:42:24.195Z,7.10
2018-04-27T11:43:24.108Z,10.30
2018-04-27T11:44:24.013Z,8.00
2018-04-27T11:45:23.922Z,6.60
2018-04-27T11:46:23.845Z,7.90
2018-04-27T11:47:23.754Z,7.20
2018-04-27T11:48:23.662Z,8.90
2018-04-27T11:49:23.572Z,7.50
2018-04-27T11:50:23.488Z,10.20
2018-04-27T11:51:23.403Z,7.80
2018-04-27T11:52:23.324Z,7.40
2018-04-27T11:53:23.221Z,10.50
2018-04-27T11:54:23.129Z,8.80
2018-04-27T11:55:23.040Z,8.70
2018-04-27T11:56:22.947Z,9.50
2018-04-27T11:57:22.858Z,9.50
2018-04-27T11:58:22.766Z,9.20
2018-04-27T11:59:22.677Z,7.70
2018-04-27T12:00:22.584Z,8.50
2018-04-27T12:01:22.494Z,9.30
2018-04-27T12:02:22.407Z,9.10
2018-04-27T12:03:22.315Z,9.20
2018-04-27T12:04:22.222Z,7.60
2018-04-27T12:05:22.130Z,7.30
2018-04-27T12:06:22.040Z,9.10
2018-04-27T12:07:21.950Z,8.30
2018-04-27T12:08:21.858Z,7.00
2018-04-27T12:09:21.768Z,7.50
2018-04-27T12:10:21.690Z,7.20
2018-04-27T12:11:21.586Z,6.70
2018-04-27T12:12:21.494Z,7.40
2018-04-27T12:13:21.405Z,7.50
2018-04-27T12:14:21.326Z,6.90
2018-04-27T12:15:21.223Z,6.60
2018-04-27T12:16:21.131Z,6.20
2018-04-27T12:17:21.041Z,5.90
2018-04-27T12:18:20.950Z,8.40
2018-04-27T12:19:21.109Z,8.60
2018-04-27T12:20:20.768Z,6.20
2018-04-27T12:21:20.683Z,5.40
2018-04-27T12:22:20.587Z,5.60
2018-04-27T12:23:20.509Z,6.50
2018-04-27T12:24:20.443Z,6.40
2018-04-27T12:25:20.326Z,6.70
2018-04-27T12:26:20.237Z,7.90
2018-04-27T12:27:20.144Z,5.50
2018-04-27T12:28:20.054Z,5.80
2018-04-27T12:29:19.963Z,6.10
2018-04-27T12:30:19.874Z,6.60
2018-04-27T12:31:19.822Z,6.40
2018-04-27T12:32:19.691Z,6.40
2018-04-27T12:33:19.601Z,6.00
2018-04-27T12:34:19.509Z,5.80
2018-04-27T12:35:19.418Z,5.40
2018-04-27T12:36:19.327Z,6.20
2018-04-27T12:37:19.236Z,7.40
2018-04-27T12:38:19.148Z,6.10
2018-04-27T12:39:19.055Z,5.40
2018-04-27T12:40:18.965Z,6.70
2018-04-27T12:41:18.874Z,5.30
2018-04-27T12:42:18.783Z,5.50
2018-04-27T12:43:18.697Z,6.10
2018-04-27T12:44:18.602Z,4.70
2018-04-27T12:45:18.510Z,4.70
2018-04-27T12:46:18.420Z,5.30
2018-04-27T12:47:18.333Z,5.70
2018-04-27T12:48:18.238Z,9.20
2018-04-27T12:49:18.148Z,9.30
2018-04-27T12:50:18.057Z,8.10
2018-04-27T12:51:17.968Z,5.90
2018-04-27T12:52:17.941Z,7.70
2018-04-27T12:53:17.783Z,5.70
2018-04-27T12:54:17.697Z,7.20
2018-04-27T12:55:17.602Z,7.30
2018-04-27T12:56:17.512Z,8.30
2018-04-27T12:57:17.421Z,7.50
2018-04-27T12:58:17.331Z,8.30
2018-04-27T12:59:17.238Z,7.60